sensor_id;sensor_type;location;lat;lon;timestamp;temperature;humidity
40249;DHT22;25969;49.970;11.062;2022-12-18T05:10:38;-10.80;99.90
40249;DHT22;25969;49.970;11.062;2022-12-18T05:20:38;-11.40;99.90
40249;DHT22;25969;49.970;11.062;2022-12-18T05:30:39;-11.50;99.90
40249;DHT22;25969;49.970;11.062;2022-12-18T05:40:42;-11.60;99.90
40249;DHT22;25969;49.970;11.062;2022-12-18T05:50:45;-11.60;99.90
40249;DHT22;25969;49.970;11.062;2022-12-18T06:00:46;-11.50;99.90
40249;DHT22;25969;49.970;11.062;2022-12-18T06:10:50;-11.40;99.90
40249;DHT22;25969;49.970;11.062;2022-12-18T06:20:56;-11.40;99.90
40249;DHT22;25969;49.970;11.062;2022-12-18T06:30:57;-11.60;99.90
40249;DHT22;25969;49.970;11.062;2022-12-18T06:40:58;-11.50;99.90
40249;DHT22;25969;49.970;11.062;2022-12-18T06:50:59;-11.60;99.90
40249;DHT22;25969;49.970;11.062;2022-12-18T07:01:01;-11.60;99.90
40249;DHT22;25969;49.970;11.062;2022-12-18T07:11:03;-11.10;99.90
40249;DHT22;25969;49.970;11.062;2022-12-18T07:21:10;-10.60;99.90
40249;DHT22;25969;49.970;11.062;2022-12-18T07:31:18;-10.90;99.90
40249;DHT22;25969;49.970;11.062;2022-12-18T07:41:19;-10.50;99.90
40249;DHT22;25969;49.970;11.062;2022-12-18T07:51:20;-10.50;99.90
40249;DHT22;25969;49.970;11.062;2022-12-18T08:01:21;-10.40;99.90
40249;DHT22;25969;49.970;11.062;2022-12-18T08:11:23;-10.30;99.90
40249;DHT22;25969;49.970;11.062;2022-12-18T08:21:49;-10.10;99.90
40249;DHT22;25969;49.970;11.062;2022-12-18T08:31:50;-9.50;99.90
40249;DHT22;25969;49.970;11.062;2022-12-18T08:41:51;-9.30;99.90
40249;DHT22;25969;49.970;11.062;2022-12-18T08:52:10;-8.80;99.90
40249;DHT22;25969;49.970;11.062;2022-12-18T09:02:11;-7.60;99.90
40249;DHT22;25969;49.970;11.062;2022-12-18T09:12:12;-6.90;99.90
40249;DHT22;25969;49.970;11.062;2022-12-18T09:22:13;-3.30;99.90
40249;DHT22;25969;49.970;11.062;2022-12-18T09:32:14;0.50;92.70
40249;DHT22;25969;49.970;11.062;2022-12-18T09:42:21;2.90;73.60
40249;DHT22;25969;49.970;11.062;2022-12-18T09:52:27;5.10;61.90
40249;DHT22;25969;49.970;11.062;2022-12-18T10:02:31;5.60;57.50
40249;DHT22;25969;49.970;11.062;2022-12-18T10:12:36;5.80;59.30
40249;DHT22;25969;49.970;11.062;2022-12-18T10:22:49;6.60;56.10
40249;DHT22;25969;49.970;11.062;2022-12-18T10:32:51;6.40;56.00
40249;DHT22;25969;49.970;11.062;2022-12-18T10:43:11;8.20;50.80
40249;DHT22;25969;49.970;11.062;2022-12-18T10:53:22;8.20;50.50
40249;DHT22;25969;49.970;11.062;2022-12-18T11:03:36;8.30;51.90
40249;DHT22;25969;49.970;11.062;2022-12-18T11:13:38;9.90;50.50
40249;DHT22;25969;49.970;11.062;2022-12-18T11:23:50;9.40;49.40
40249;DHT22;25969;49.970;11.062;2022-12-18T11:34:10;8.10;51.70
40249;DHT22;25969;49.970;11.062;2022-12-18T11:44:15;10.10;48.40
40249;DHT22;25969;49.970;11.062;2022-12-18T11:54:18;10.80;45.30
40249;DHT22;25969;49.970;11.062;2022-12-18T12:14:57;9.30;47.80
40249;DHT22;25969;49.970;11.062;2022-12-18T12:45:56;2.30;66.20
40249;DHT22;25969;49.970;11.062;2022-12-18T12:56:02;2.40;66.70
40249;DHT22;25969;49.970;11.062;2022-12-18T13:06:05;2.20;66.00
40249;DHT22;25969;49.970;11.062;2022-12-18T13:16:10;1.70;69.30
40249;DHT22;25969;49.970;11.062;2022-12-18T13:46:30;-0.90;80.50
40249;DHT22;25969;49.970;11.062;2022-12-18T13:56:46;-1.50;83.40
40249;DHT22;25969;49.970;11.062;2022-12-18T14:06:50;-2.10;88.20
40249;DHT22;25969;49.970;11.062;2022-12-18T14:16:52;-2.50;90.80
40249;DHT22;25969;49.970;11.062;2022-12-18T14:26:53;-2.70;93.40
40249;DHT22;25969;49.970;11.062;2022-12-18T14:36:54;-3.20;94.60
40249;DHT22;25969;49.970;11.062;2022-12-18T14:46:56;-3.60;96.40
40249;DHT22;25969;49.970;11.062;2022-12-18T14:57:05;-3.70;98.70
40249;DHT22;25969;49.970;11.062;2022-12-18T15:07:22;-4.00;99.90
40249;DHT22;25969;49.970;11.062;2022-12-18T15:17:23;-4.30;99.90
40249;DHT22;25969;49.970;11.062;2022-12-18T15:37:28;-4.50;99.90
40249;DHT22;25969;49.970;11.062;2022-12-18T15:47:28;-4.50;99.90
40249;DHT22;25969;49.970;11.062;2022-12-18T15:57:29;-3.90;99.90
40249;DHT22;25969;49.970;11.062;2022-12-18T16:07:30;-4.20;99.90
40249;DHT22;25969;49.970;11.062;2022-12-18T16:17:31;-4.60;99.90
40249;DHT22;25969;49.970;11.062;2022-12-18T16:27:31;-4.60;99.90
40249;DHT22;25969;49.970;11.062;2022-12-18T16:37:33;-4.60;99.90
40249;DHT22;25969;49.970;11.062;2022-12-18T16:47:35;-4.70;99.90
40249;DHT22;25969;49.970;11.062;2022-12-18T16:57:36;-4.60;99.90
40249;DHT22;25969;49.970;11.062;2022-12-18T17:07:36;-4.50;99.90
40249;DHT22;25969;49.970;11.062;2022-12-18T17:17:37;-4.50;99.90
40249;DHT22;25969;49.970;11.062;2022-12-18T17:27:38;-4.40;99.90
40249;DHT22;25969;49.970;11.062;2022-12-18T17:37:39;-4.40;99.90
40249;DHT22;25969;49.970;11.062;2022-12-18T17:47:40;-4.50;99.90
40249;DHT22;25969;49.970;11.062;2022-12-18T17:57:41;-4.50;99.90
40249;DHT22;25969;49.970;11.062;2022-12-18T18:07:42;-4.50;99.90
40249;DHT22;25969;49.970;11.062;2022-12-18T18:17:43;-4.30;99.90
40249;DHT22;25969;49.970;11.062;2022-12-18T18:27:44;-4.30;99.90
40249;DHT22;25969;49.970;11.062;2022-12-18T18:37:47;-4.30;99.90
40249;DHT22;25969;49.970;11.062;2022-12-18T18:47:48;-4.00;99.90
40249;DHT22;25969;49.970;11.062;2022-12-18T18:57:49;-4.10;99.90
40249;DHT22;25969;49.970;11.062;2022-12-18T19:07:50;-4.20;99.90
40249;DHT22;25969;49.970;11.062;2022-12-18T19:17:51;-4.20;99.90
40249;DHT22;25969;49.970;11.062;2022-12-18T19:27:52;-4.10;99.90
40249;DHT22;25969;49.970;11.062;2022-12-18T19:37:53;-4.10;99.90
40249;DHT22;25969;49.970;11.062;2022-12-18T19:47:54;-4.20;99.90
40249;DHT22;25969;49.970;11.062;2022-12-18T19:57:55;-4.30;99.90
40249;DHT22;25969;49.970;11.062;2022-12-18T20:07:56;-4.40;99.90
40249;DHT22;25969;49.970;11.062;2022-12-18T20:17:57;-4.50;99.90
40249;DHT22;25969;49.970;11.062;2022-12-18T20:27:58;-4.50;99.90
40249;DHT22;25969;49.970;11.062;2022-12-18T20:37:59;-4.40;99.90
40249;DHT22;25969;49.970;11.062;2022-12-18T20:48:00;-4.40;99.90
40249;DHT22;25969;49.970;11.062;2022-12-18T20:58:01;-4.50;99.90
40249;DHT22;25969;49.970;11.062;2022-12-18T21:08:02;-4.60;99.90
40249;DHT22;25969;49.970;11.062;2022-12-18T21:18:03;-4.40;99.90
40249;DHT22;25969;49.970;11.062;2022-12-18T21:28:04;-4.50;99.90
40249;DHT22;25969;49.970;11.062;2022-12-18T21:38:04;-4.40;99.90
40249;DHT22;25969;49.970;11.062;2022-12-18T21:48:05;-4.50;99.90
40249;DHT22;25969;49.970;11.062;2022-12-18T21:58:06;-4.00;99.90
40249;DHT22;25969;49.970;11.062;2022-12-18T22:08:07;-4.60;99.90
40249;DHT22;25969;49.970;11.062;2022-12-18T22:18:08;-4.60;99.90
40249;DHT22;25969;49.970;11.062;2022-12-18T22:28:11;-4.60;99.90
40249;DHT22;25969;49.970;11.062;2022-12-18T22:38:31;-4.60;99.90
40249;DHT22;25969;49.970;11.062;2022-12-18T22:48:31;-4.70;99.90
40249;DHT22;25969;49.970;11.062;2022-12-18T22:58:32;-4.60;99.90
